PASY METAR and TAF weather

Enter ICAO airport designator
Station Type Date Time Source
PASY METAR 2021/05/12 04:58 UTC NOAA

PASY 120458Z AUTO 21016KT 2 1/4SM BR M M A2934 RMK AO2 VIS 2 1/4V2 3/4 SLPNO PNO FZRANO $


Station Type Date Time Source
PASY Decoded METAR 2021/05/12 04:58 UTC NOAA

SHEMYA EARECKSON AS, AK, United States (PASY) 52-43N 174-07E
May 12, 2021 - 12:58 AM EDT / 2021.05.12 0458 UTC
Wind: from the SSW (210 degrees) at 18 MPH (16 KT):0
Visibility: 2 1/4 mile(s):0
Weather: mist
Pressure (altimeter): 29.34 in. Hg (993 hPa)
ob: PASY 120458Z AUTO 21016KT 2 1/4SM BR M M A2934 RMK AO2 VIS 2 1/4V2 3/4 SLPNO PNO FZRANO
cycle: 5

Station Type Date Time Source
PASY TAF 2021/05/12 02:59 UTC NOAA

TAF
AMD PASY 120250Z 1202/1304 18012KT 4800 DZ OVC003 620406 QNH2930INS
TEMPO 1202/1204 3200 DZ OVC003
BECMG 1204/1205 17010KT 0800 DZ FG OVC003 620406 QNH2930INS
BECMG 1215/1216 14012KT 4800 -RA OVC008 620207 QNH2930INS TX05/1202Z TN02/1221Z

Example: see airport list